createdAt,value
2019-05-19T00:01:43.883Z,6.33
2019-05-19T00:04:49.621Z,4.55
2019-05-19T00:07:55.218Z,6.47
2019-05-19T00:11:00.814Z,7.33
2019-05-19T00:14:06.434Z,6.40
2019-05-19T00:17:12.094Z,5.28
2019-05-19T00:20:17.866Z,5.03
2019-05-19T00:23:24.552Z,5.67
2019-05-19T00:26:30.201Z,4.70
2019-05-19T00:29:35.857Z,5.78
2019-05-19T00:32:41.711Z,5.37
2019-05-19T00:35:47.266Z,4.70
2019-05-19T00:38:53.948Z,5.12
2019-05-19T00:41:59.729Z,8.43
2019-05-19T00:45:06.541Z,5.55
2019-05-19T00:48:12.333Z,4.72
2019-05-19T00:51:18.363Z,7.92
2019-05-19T00:54:24.991Z,5.30
2019-05-19T00:57:31.433Z,6.47
2019-05-19T01:00:37.295Z,6.92
2019-05-19T01:03:42.954Z,5.17
2019-05-19T01:06:48.498Z,6.12
2019-05-19T01:09:55.082Z,6.58
2019-05-19T01:13:00.768Z,5.03
2019-05-19T01:16:06.494Z,5.92
2019-05-19T01:19:12.117Z,5.42
2019-05-19T01:22:17.964Z,8.18
2019-05-19T01:25:23.650Z,6.00
2019-05-19T01:28:29.334Z,5.37
2019-05-19T01:31:34.930Z,5.30
2019-05-19T01:34:40.587Z,6.15
2019-05-19T01:37:46.266Z,5.53
2019-05-19T01:40:51.914Z,4.90
2019-05-19T01:43:57.598Z,6.60
2019-05-19T01:47:03.194Z,5.37
2019-05-19T01:50:17.417Z,5.20
2019-05-19T01:53:16.574Z,5.28
2019-05-19T01:56:22.330Z,5.05
2019-05-19T01:59:27.919Z,6.28
2019-05-19T02:02:33.542Z,5.65
2019-05-19T02:05:40.201Z,6.30
2019-05-19T02:08:45.895Z,5.83
2019-05-19T02:11:51.605Z,6.03
2019-05-19T02:14:57.313Z,5.87
2019-05-19T02:18:04.058Z,5.87
2019-05-19T02:21:09.769Z,5.78
2019-05-19T02:24:15.488Z,6.60
2019-05-19T02:27:21.316Z,6.62
2019-05-19T02:30:27.106Z,6.05
2019-05-19T02:33:35.881Z,5.40
2019-05-19T02:36:41.629Z,6.08
2019-05-19T02:39:47.343Z,6.55
2019-05-19T02:42:55.172Z,5.42
2019-05-19T02:46:02.086Z,5.30
2019-05-19T02:49:08.995Z,6.28
2019-05-19T02:52:16.315Z,7.28
2019-05-19T02:55:22.937Z,5.70
2019-05-19T02:58:30.289Z,5.03
2019-05-19T03:01:37.684Z,5.58
2019-05-19T03:04:43.318Z,5.67
2019-05-19T03:07:48.934Z,6.62
2019-05-19T03:10:54.619Z,5.10
2019-05-19T03:14:00.211Z,5.83
2019-05-19T03:17:06.095Z,6.37
2019-05-19T03:20:12.960Z,5.90
2019-05-19T03:23:18.631Z,6.65
2019-05-19T03:26:24.287Z,5.70
2019-05-19T03:29:37.023Z,5.92
2019-05-19T03:32:49.412Z,5.30
2019-05-19T03:35:55.062Z,5.75
2019-05-19T03:39:00.714Z,6.05
2019-05-19T03:42:10.216Z,5.58
2019-05-19T03:45:14.163Z,7.55
2019-05-19T03:48:19.829Z,7.33
2019-05-19T03:51:30.821Z,6.65
2019-05-19T03:54:32.771Z,5.67
2019-05-19T03:57:38.318Z,6.70
2019-05-19T04:00:43.950Z,6.42
2019-05-19T04:03:49.517Z,6.15
2019-05-19T04:06:55.207Z,5.58
2019-05-19T04:10:00.970Z,5.62
2019-05-19T04:13:06.687Z,5.10
2019-05-19T04:16:13.403Z,5.65
2019-05-19T04:19:19.015Z,5.45
2019-05-19T04:22:24.670Z,5.80
2019-05-19T04:25:30.331Z,5.47
2019-05-19T04:28:36.043Z,5.47
2019-05-19T04:31:41.624Z,6.87
2019-05-19T04:34:47.115Z,5.92
2019-05-19T04:37:52.725Z,5.45
2019-05-19T04:40:58.442Z,6.37
2019-05-19T04:44:04.102Z,6.05
2019-05-19T04:47:09.801Z,6.03
2019-05-19T04:50:15.443Z,5.67
2019-05-19T04:53:21.062Z,5.25
2019-05-19T04:56:26.718Z,5.65
2019-05-19T04:59:32.369Z,6.65
2019-05-19T05:02:38.099Z,7.58
2019-05-19T05:05:43.806Z,5.25
2019-05-19T05:08:49.458Z,5.47
2019-05-19T05:11:55.110Z,5.87
2019-05-19T05:15:00.766Z,5.80
2019-05-19T05:18:06.496Z,4.97
2019-05-19T05:21:12.185Z,5.17
2019-05-19T05:24:17.836Z,5.87
2019-05-19T05:27:25.222Z,5.28
2019-05-19T05:30:30.955Z,6.60
2019-05-19T05:33:36.385Z,5.28
2019-05-19T05:36:41.870Z,6.33
2019-05-19T05:39:47.370Z,5.10
2019-05-19T05:42:53.002Z,5.22
2019-05-19T05:45:58.621Z,5.78
2019-05-19T05:49:04.250Z,4.65
2019-05-19T05:52:09.930Z,4.90
2019-05-19T05:55:15.614Z,5.45
2019-05-19T05:58:21.277Z,5.65
2019-05-19T06:01:27.911Z,5.22
2019-05-19T06:04:33.526Z,5.92
2019-05-19T06:07:39.214Z,5.53
2019-05-19T06:10:45.800Z,5.65
2019-05-19T06:13:53.011Z,5.80
2019-05-19T06:16:58.597Z,6.92
2019-05-19T06:20:04.688Z,6.42
2019-05-19T06:23:10.530Z,6.10
2019-05-19T06:26:16.253Z,5.05
2019-05-19T06:29:21.917Z,5.72
2019-05-19T06:32:35.881Z,6.12
2019-05-19T06:35:41.455Z,5.83
2019-05-19T06:38:47.256Z,5.35
2019-05-19T06:41:52.872Z,5.83
2019-05-19T06:44:58.490Z,6.17
2019-05-19T06:48:04.303Z,5.42
2019-05-19T06:51:10.066Z,6.17
2019-05-19T06:54:15.717Z,6.65
2019-05-19T06:57:21.338Z,5.10
2019-05-19T07:00:27.206Z,6.08
2019-05-19T07:03:32.913Z,5.78
2019-05-19T07:06:38.715Z,6.72
2019-05-19T07:09:57.485Z,6.20
2019-05-19T07:12:51.646Z,5.37
2019-05-19T07:15:57.204Z,5.53
2019-05-19T07:19:02.853Z,6.25
2019-05-19T07:22:08.538Z,6.28
2019-05-19T07:25:14.667Z,6.87
2019-05-19T07:28:21.114Z,5.87
2019-05-19T07:31:26.769Z,6.62
2019-05-19T07:34:32.491Z,6.42
2019-05-19T07:37:38.112Z,5.80
2019-05-19T07:40:43.713Z,6.08
2019-05-19T07:43:49.373Z,6.80
2019-05-19T07:46:55.112Z,6.55
2019-05-19T07:50:00.714Z,6.62
2019-05-19T07:53:06.361Z,6.35
2019-05-19T07:56:12.117Z,5.95
2019-05-19T07:59:17.742Z,5.75
2019-05-19T08:02:23.833Z,6.62
2019-05-19T08:05:29.455Z,7.15
2019-05-19T08:08:35.023Z,6.12
2019-05-19T08:11:40.738Z,7.47
2019-05-19T08:14:46.306Z,5.22
2019-05-19T08:17:52.015Z,5.30
2019-05-19T08:20:57.847Z,6.28
2019-05-19T08:24:03.847Z,5.10
2019-05-19T08:27:09.458Z,5.78
2019-05-19T08:30:15.907Z,5.90
2019-05-19T08:33:23.281Z,6.00
2019-05-19T08:36:29.022Z,5.97
2019-05-19T08:39:34.728Z,5.92
2019-05-19T08:42:40.389Z,5.90
2019-05-19T08:45:46.152Z,5.30
2019-05-19T08:48:51.776Z,5.55
2019-05-19T08:51:57.402Z,5.70
2019-05-19T08:55:03.040Z,5.03
2019-05-19T08:58:08.694Z,6.45
2019-05-19T09:01:14.172Z,6.42
2019-05-19T09:04:19.826Z,6.45
2019-05-19T09:07:25.647Z,4.80
2019-05-19T09:10:32.174Z,6.03
2019-05-19T09:13:37.813Z,5.28
2019-05-19T09:16:43.426Z,6.70
2019-05-19T09:19:49.047Z,5.65
2019-05-19T09:22:54.693Z,6.33
2019-05-19T09:26:00.362Z,6.12
2019-05-19T09:29:06.002Z,7.05
2019-05-19T09:32:11.657Z,5.17
2019-05-19T09:35:17.690Z,6.85
2019-05-19T09:38:23.442Z,6.08
2019-05-19T09:41:29.130Z,5.85
2019-05-19T09:44:34.877Z,5.83
2019-05-19T09:47:40.526Z,6.37
2019-05-19T09:50:46.287Z,5.75
2019-05-19T09:53:51.908Z,5.17
2019-05-19T09:56:57.509Z,5.37
2019-05-19T10:00:03.425Z,5.83
2019-05-19T10:03:10.835Z,5.60
2019-05-19T10:06:16.545Z,5.53
2019-05-19T10:10:00.192Z,5.97
2019-05-19T10:13:06.914Z,6.53
2019-05-19T10:16:12.534Z,5.50
2019-05-19T10:19:18.520Z,5.60
2019-05-19T10:22:24.437Z,5.20
2019-05-19T10:25:31.025Z,5.22
2019-05-19T10:28:36.706Z,5.53
2019-05-19T10:31:42.398Z,6.42
2019-05-19T10:34:48.011Z,6.05
2019-05-19T10:37:53.726Z,5.40
2019-05-19T10:40:59.393Z,6.47
2019-05-19T10:44:05.161Z,6.40
2019-05-19T10:47:12.005Z,6.03
2019-05-19T10:50:17.678Z,5.58
2019-05-19T10:53:23.323Z,5.72
2019-05-19T10:56:28.954Z,7.00
2019-05-19T10:59:34.650Z,6.03
2019-05-19T11:02:40.394Z,5.05
2019-05-19T11:05:46.151Z,6.97
2019-05-19T11:08:51.838Z,5.60
2019-05-19T11:11:57.535Z,5.25
2019-05-19T11:15:03.352Z,5.72
2019-05-19T11:18:09.243Z,5.70
2019-05-19T11:21:14.946Z,5.60
2019-05-19T11:24:20.546Z,5.62
2019-05-19T11:27:26.258Z,5.17
2019-05-19T11:30:31.917Z,6.53
2019-05-19T11:33:38.866Z,6.25
2019-05-19T11:36:46.290Z,6.40
2019-05-19T11:39:51.910Z,6.12
2019-05-19T11:42:57.525Z,8.23
2019-05-19T11:46:03.173Z,6.17
2019-05-19T11:49:08.747Z,5.95
2019-05-19T11:52:14.413Z,6.78
2019-05-19T11:55:20.270Z,4.97
2019-05-19T11:58:25.954Z,6.10
2019-05-19T12:01:31.546Z,5.00
2019-05-19T12:04:37.447Z,5.42
2019-05-19T12:07:43.095Z,6.40
2019-05-19T12:10:48.715Z,5.67
2019-05-19T12:13:54.398Z,5.83
2019-05-19T12:17:00.022Z,5.60
2019-05-19T12:20:06.011Z,5.22
2019-05-19T12:23:11.670Z,5.10
2019-05-19T12:26:23.011Z,5.05
2019-05-19T12:29:24.739Z,6.47
2019-05-19T12:32:30.342Z,5.50
2019-05-19T12:35:35.993Z,6.62
2019-05-19T12:38:43.438Z,6.58
2019-05-19T12:41:49.166Z,5.83
2019-05-19T12:44:54.789Z,6.17
2019-05-19T12:48:00.367Z,6.25
2019-05-19T12:51:06.045Z,6.20
2019-05-19T12:54:11.639Z,4.83
2019-05-19T12:57:17.311Z,6.40
2019-05-19T13:00:24.868Z,5.95
2019-05-19T13:03:30.571Z,4.70
2019-05-19T13:06:36.251Z,5.92
2019-05-19T13:09:41.846Z,6.85
2019-05-19T13:12:48.461Z,6.67
2019-05-19T13:15:54.177Z,5.53
2019-05-19T13:18:59.767Z,7.17
2019-05-19T13:22:05.548Z,8.30
2019-05-19T13:25:12.453Z,5.90
2019-05-19T13:28:18.053Z,5.62
2019-05-19T13:31:23.697Z,7.60
2019-05-19T13:34:29.358Z,8.08
2019-05-19T13:37:35.008Z,5.40
2019-05-19T13:40:40.670Z,6.35
2019-05-19T13:43:46.227Z,7.50
2019-05-19T13:46:51.940Z,10.68
2019-05-19T13:49:58.442Z,9.43
2019-05-19T13:53:04.130Z,12.53
2019-05-19T13:56:09.741Z,16.87
2019-05-19T13:59:15.290Z,20.80
2019-05-19T14:02:20.982Z,36.88
2019-05-19T14:05:26.678Z,21.68
2019-05-19T14:08:32.361Z,18.27
2019-05-19T14:11:38.010Z,19.92
2019-05-19T14:14:47.113Z,28.83
2019-05-19T14:17:52.626Z,19.23
2019-05-19T14:20:58.217Z,15.28
2019-05-19T14:24:03.930Z,24.12
2019-05-19T14:27:12.927Z,18.30
2019-05-19T14:30:17.054Z,17.37
2019-05-19T14:33:22.810Z,26.30
2019-05-19T14:36:28.467Z,71.62
2019-05-19T14:39:34.254Z,24.00
2019-05-19T14:43:02.022Z,16.80
2019-05-19T14:46:07.666Z,13.25
2019-05-19T14:49:13.340Z,13.22
2019-05-19T14:52:18.979Z,15.20
2019-05-19T14:55:24.707Z,12.75
2019-05-19T14:58:30.377Z,13.55
2019-05-19T15:01:36.002Z,11.55
2019-05-19T15:04:41.696Z,11.57
2019-05-19T15:07:47.307Z,10.45
2019-05-19T15:10:52.928Z,9.33
2019-05-19T15:13:58.411Z,10.08
2019-05-19T15:17:04.163Z,10.10
2019-05-19T15:20:19.414Z,8.95
2019-05-19T15:23:25.113Z,9.38
2019-05-19T15:26:30.981Z,9.08
2019-05-19T15:29:36.682Z,9.25
2019-05-19T15:32:42.354Z,8.33
2019-05-19T15:35:48.014Z,9.40
2019-05-19T15:38:53.629Z,8.10
2019-05-19T15:42:01.156Z,9.03
2019-05-19T15:45:07.422Z,7.65
2019-05-19T15:48:13.088Z,7.67
2019-05-19T15:51:27.879Z,8.08
2019-05-19T15:54:25.914Z,8.60
2019-05-19T15:57:31.578Z,7.47
2019-05-19T16:00:37.204Z,7.25
2019-05-19T16:03:42.950Z,7.67
2019-05-19T16:06:48.434Z,9.00
2019-05-19T16:09:54.098Z,8.75
2019-05-19T16:12:59.880Z,6.78
2019-05-19T16:16:06.482Z,6.42
2019-05-19T16:19:12.110Z,7.30
2019-05-19T16:22:17.681Z,7.83
2019-05-19T16:25:23.437Z,6.53
2019-05-19T16:28:31.071Z,6.08
2019-05-19T16:31:36.392Z,10.65
2019-05-19T16:34:42.099Z,13.35
2019-05-19T16:37:47.823Z,11.12
2019-05-19T16:40:53.454Z,11.03
2019-05-19T16:44:00.010Z,9.35
2019-05-19T16:47:05.706Z,12.63
2019-05-19T16:50:11.888Z,7.97
2019-05-19T16:53:17.421Z,13.45
2019-05-19T16:56:23.207Z,8.35
2019-05-19T16:59:29.994Z,7.42
2019-05-19T17:02:35.786Z,8.60
2019-05-19T17:05:41.433Z,8.85
2019-05-19T17:08:47.141Z,8.35
2019-05-19T17:11:52.772Z,8.28
2019-05-19T17:14:58.453Z,7.17
2019-05-19T17:18:04.043Z,7.42
2019-05-19T17:21:09.626Z,8.55
2019-05-19T17:24:15.330Z,8.33
2019-05-19T17:27:22.603Z,7.37
2019-05-19T17:30:28.172Z,10.53
2019-05-19T17:33:33.780Z,13.22
2019-05-19T17:36:39.470Z,7.55
2019-05-19T17:39:45.122Z,11.53
2019-05-19T17:42:52.532Z,14.07
2019-05-19T17:45:58.162Z,15.55
2019-05-19T17:49:03.950Z,20.43
2019-05-19T17:52:10.550Z,16.65
2019-05-19T17:55:16.790Z,22.95
2019-05-19T17:58:22.663Z,22.42
2019-05-19T18:01:28.338Z,25.05
2019-05-19T18:04:34.021Z,35.23
2019-05-19T18:07:39.751Z,31.05
2019-05-19T18:10:45.455Z,34.35
2019-05-19T18:13:51.117Z,44.63
2019-05-19T18:16:56.914Z,48.02
2019-05-19T18:20:02.562Z,43.25
2019-05-19T18:23:08.540Z,33.98
2019-05-19T18:26:14.239Z,34.83
2019-05-19T18:29:30.915Z,30.45
2019-05-19T18:32:27.326Z,42.95
2019-05-19T18:35:33.087Z,29.90
2019-05-19T18:38:38.892Z,35.55
2019-05-19T18:41:44.827Z,23.22
2019-05-19T18:44:50.954Z,37.93
2019-05-19T18:47:56.514Z,30.12
2019-05-19T18:51:02.189Z,28.67
2019-05-19T18:54:07.726Z,23.62
2019-05-19T18:57:13.387Z,22.35
2019-05-19T19:00:34.384Z,25.68
2019-05-19T19:03:40.279Z,25.30
2019-05-19T19:06:45.931Z,20.60
2019-05-19T19:09:53.000Z,18.15
2019-05-19T19:12:58.607Z,20.62
2019-05-19T19:16:04.182Z,25.40
2019-05-19T19:19:09.829Z,16.52
2019-05-19T19:22:15.486Z,19.85
2019-05-19T19:25:21.110Z,16.30
2019-05-19T19:28:26.791Z,13.75
2019-05-19T19:31:32.435Z,17.42
2019-05-19T19:34:38.100Z,18.00
2019-05-19T19:37:43.729Z,16.77
2019-05-19T19:40:49.367Z,16.90
2019-05-19T19:43:55.060Z,18.45
2019-05-19T19:47:00.743Z,14.78
2019-05-19T19:50:07.861Z,11.45
2019-05-19T19:53:13.626Z,17.92
2019-05-19T19:56:20.186Z,16.77
2019-05-19T19:59:25.677Z,14.40
2019-05-19T20:02:31.329Z,15.83
2019-05-19T20:05:37.038Z,11.03
2019-05-19T20:08:42.637Z,16.12
2019-05-19T20:11:48.311Z,12.98
2019-05-19T20:14:53.911Z,15.72
2019-05-19T20:17:59.558Z,17.35
2019-05-19T20:21:05.310Z,16.23
2019-05-19T20:24:10.918Z,11.75
2019-05-19T20:27:16.582Z,10.95
2019-05-19T20:30:34.436Z,14.45
2019-05-19T20:33:29.362Z,14.87
2019-05-19T20:36:36.419Z,12.20
2019-05-19T20:39:42.021Z,9.03
2019-05-19T20:42:47.718Z,11.93
2019-05-19T20:45:53.326Z,14.73
2019-05-19T20:48:59.099Z,13.35
2019-05-19T20:52:04.746Z,10.55
2019-05-19T20:55:10.576Z,11.10
2019-05-19T20:58:16.291Z,13.55
2019-05-19T21:01:22.105Z,14.35
2019-05-19T21:04:27.803Z,14.45
2019-05-19T21:07:33.565Z,10.78
2019-05-19T21:10:40.150Z,13.45
2019-05-19T21:13:45.869Z,9.03
2019-05-19T21:16:52.489Z,11.88
2019-05-19T21:19:58.183Z,10.63
2019-05-19T21:23:03.819Z,8.88
2019-05-19T21:26:09.478Z,12.60
2019-05-19T21:29:15.161Z,8.53
2019-05-19T21:32:20.857Z,11.40
2019-05-19T21:35:26.518Z,9.93
2019-05-19T21:38:32.244Z,10.60
2019-05-19T21:41:37.949Z,10.98
2019-05-19T21:44:44.607Z,8.63
2019-05-19T21:47:50.248Z,9.90
2019-05-19T21:50:55.923Z,11.97
2019-05-19T21:54:01.378Z,9.88
2019-05-19T21:57:07.015Z,8.68
2019-05-19T22:00:13.622Z,10.98
2019-05-19T22:03:20.839Z,7.90
2019-05-19T22:06:28.182Z,9.18
2019-05-19T22:09:33.851Z,11.35
2019-05-19T22:12:39.739Z,10.13
2019-05-19T22:15:45.390Z,8.85
2019-05-19T22:18:51.114Z,9.10
2019-05-19T22:21:56.805Z,18.17
2019-05-19T22:25:02.427Z,9.28
2019-05-19T22:28:08.323Z,8.65
2019-05-19T22:31:13.974Z,11.30
2019-05-19T22:34:19.573Z,10.93
2019-05-19T22:37:25.278Z,10.78
2019-05-19T22:40:30.986Z,9.25
2019-05-19T22:43:36.614Z,11.20
2019-05-19T22:46:43.359Z,8.90
2019-05-19T22:49:48.975Z,8.63
2019-05-19T22:52:54.721Z,8.38
2019-05-19T22:56:00.443Z,8.15
2019-05-19T22:59:18.888Z,10.98
2019-05-19T23:02:13.437Z,10.75
2019-05-19T23:05:19.462Z,11.00
2019-05-19T23:08:25.212Z,8.33
2019-05-19T23:11:30.898Z,10.25
2019-05-19T23:14:36.545Z,8.63
2019-05-19T23:17:42.212Z,7.62
2019-05-19T23:20:47.825Z,10.53
2019-05-19T23:23:53.509Z,8.55
2019-05-19T23:27:00.954Z,9.78
2019-05-19T23:30:07.445Z,9.20
2019-05-19T23:33:13.034Z,7.67
2019-05-19T23:36:18.642Z,8.15
2019-05-19T23:39:24.108Z,7.92
2019-05-19T23:42:29.749Z,8.13
2019-05-19T23:45:36.910Z,9.15
2019-05-19T23:48:42.726Z,8.08
2019-05-19T23:51:48.337Z,8.73
2019-05-19T23:54:54.950Z,8.28
2019-05-19T23:58:00.575Z,7.90
